sensor_id;sensor_type;location;lat;lon;timestamp;pressure;altitude;pressure_sealevel;temperature;humidity
72055;BME280;59936;51.490;5.436;2022-12-24T00:04:09;100429.38;;;8.99;100.00
72055;BME280;59936;51.490;5.436;2022-12-24T00:09:12;100437.94;;;9.01;100.00
72055;BME280;59936;51.490;5.436;2022-12-24T00:14:13;100435.28;;;9.03;100.00
72055;BME280;59936;51.490;5.436;2022-12-24T00:19:15;100429.84;;;9.09;100.00
72055;BME280;59936;51.490;5.436;2022-12-24T00:24:18;100440.56;;;9.01;100.00
72055;BME280;59936;51.490;5.436;2022-12-24T00:29:20;100438.13;;;8.98;100.00
72055;BME280;59936;51.490;5.436;2022-12-24T00:34:22;100451.75;;;9.04;100.00
72055;BME280;59936;51.490;5.436;2022-12-24T00:39:25;100465.41;;;9.09;100.00
72055;BME280;59936;51.490;5.436;2022-12-24T00:44:27;100470.50;;;9.12;100.00
72055;BME280;59936;51.490;5.436;2022-12-24T00:49:29;100491.34;;;9.12;100.00
72055;BME280;59936;51.490;5.436;2022-12-24T00:54:32;100497.81;;;9.01;100.00
72055;BME280;59936;51.490;5.436;2022-12-24T00:59:33;100501.66;;;8.93;100.00
72055;BME280;59936;51.490;5.436;2022-12-24T01:04:35;100504.34;;;8.91;100.00
72055;BME280;59936;51.490;5.436;2022-12-24T01:09:56;100505.91;;;8.95;100.00
72055;BME280;59936;51.490;5.436;2022-12-24T01:14:57;100504.34;;;8.91;100.00
72055;BME280;59936;51.490;5.436;2022-12-24T01:19:59;100520.56;;;8.75;100.00
72055;BME280;59936;51.490;5.436;2022-12-24T01:25:03;100530.00;;;8.56;100.00
72055;BME280;59936;51.490;5.436;2022-12-24T01:30:07;100534.00;;;8.65;100.00
72055;BME280;59936;51.490;5.436;2022-12-24T01:35:10;100544.69;;;8.57;100.00
72055;BME280;59936;51.490;5.436;2022-12-24T01:40:15;100541.75;;;8.42;100.00
72055;BME280;59936;51.490;5.436;2022-12-24T01:45:46;100559.38;;;8.34;100.00
72055;BME280;59936;51.490;5.436;2022-12-24T01:50:53;100566.97;;;8.40;100.00
72055;BME280;59936;51.490;5.436;2022-12-24T01:56:00;100565.84;;;8.47;100.00
72055;BME280;59936;51.490;5.436;2022-12-24T02:01:03;100566.59;;;8.49;100.00
72055;BME280;59936;51.490;5.436;2022-12-24T02:06:07;100573.41;;;8.54;100.00
72055;BME280;59936;51.490;5.436;2022-12-24T02:11:15;100573.09;;;8.63;100.00
72055;BME280;59936;51.490;5.436;2022-12-24T02:16:28;100585.78;;;8.71;100.00
72055;BME280;59936;51.490;5.436;2022-12-24T02:21:51;100592.38;;;8.80;100.00
72055;BME280;59936;51.490;5.436;2022-12-24T02:27:08;100593.16;;;8.82;100.00
72055;BME280;59936;51.490;5.436;2022-12-24T02:32:21;100598.25;;;8.85;100.00
72055;BME280;59936;51.490;5.436;2022-12-24T02:37:32;100606.75;;;8.90;100.00
72055;BME280;59936;51.490;5.436;2022-12-24T02:42:39;100613.63;;;8.91;100.00
72055;BME280;59936;51.490;5.436;2022-12-24T02:47:44;100611.81;;;8.93;100.00
72055;BME280;59936;51.490;5.436;2022-12-24T02:52:47;100614.78;;;8.84;100.00
72055;BME280;59936;51.490;5.436;2022-12-24T02:58:00;100608.78;;;8.82;100.00
72055;BME280;59936;51.490;5.436;2022-12-24T03:03:30;100616.47;;;8.85;100.00
72055;BME280;59936;51.490;5.436;2022-12-24T03:08:49;100620.78;;;8.86;100.00
72055;BME280;59936;51.490;5.436;2022-12-24T03:13:57;100624.66;;;8.98;100.00
72055;BME280;59936;51.490;5.436;2022-12-24T03:19:02;100623.44;;;9.07;100.00
72055;BME280;59936;51.490;5.436;2022-12-24T03:24:05;100626.75;;;9.10;100.00
72055;BME280;59936;51.490;5.436;2022-12-24T03:29:07;100633.84;;;9.07;100.00
72055;BME280;59936;51.490;5.436;2022-12-24T03:34:11;100636.47;;;9.07;100.00
72055;BME280;59936;51.490;5.436;2022-12-24T03:39:14;100636.34;;;9.10;100.00
72055;BME280;59936;51.490;5.436;2022-12-24T03:44:15;100647.78;;;9.06;100.00
72055;BME280;59936;51.490;5.436;2022-12-24T03:49:18;100657.22;;;9.08;100.00
72055;BME280;59936;51.490;5.436;2022-12-24T03:54:20;100653.94;;;9.03;100.00
72055;BME280;59936;51.490;5.436;2022-12-24T03:59:22;100669.75;;;8.98;100.00
72055;BME280;59936;51.490;5.436;2022-12-24T04:04:25;100668.84;;;8.99;100.00
72055;BME280;59936;51.490;5.436;2022-12-24T04:09:28;100672.22;;;9.01;100.00
72055;BME280;59936;51.490;5.436;2022-12-24T04:14:30;100673.94;;;9.02;100.00
72055;BME280;59936;51.490;5.436;2022-12-24T04:19:33;100680.13;;;9.00;100.00
72055;BME280;59936;51.490;5.436;2022-12-24T04:24:35;100673.94;;;9.02;100.00
72055;BME280;59936;51.490;5.436;2022-12-24T04:29:37;100689.56;;;9.02;100.00
72055;BME280;59936;51.490;5.436;2022-12-24T04:34:40;100699.22;;;8.99;100.00
72055;BME280;59936;51.490;5.436;2022-12-24T04:39:41;100700.13;;;8.98;100.00
72055;BME280;59936;51.490;5.436;2022-12-24T04:44:43;100694.31;;;8.91;100.00
72055;BME280;59936;51.490;5.436;2022-12-24T04:49:46;100705.50;;;8.93;100.00
72055;BME280;59936;51.490;5.436;2022-12-24T04:54:48;100692.75;;;8.87;100.00
72055;BME280;59936;51.490;5.436;2022-12-24T04:59:49;100705.97;;;8.81;100.00
72055;BME280;59936;51.490;5.436;2022-12-24T05:04:53;100713.88;;;8.78;100.00
72055;BME280;59936;51.490;5.436;2022-12-24T05:09:56;100711.28;;;8.78;100.00
72055;BME280;59936;51.490;5.436;2022-12-24T05:14:57;100724.59;;;8.70;100.00
72055;BME280;59936;51.490;5.436;2022-12-24T05:20:00;100715.25;;;8.64;100.00
72055;BME280;59936;51.490;5.436;2022-12-24T05:25:02;100713.22;;;8.72;100.00
72055;BME280;59936;51.490;5.436;2022-12-24T05:30:22;100704.38;;;8.76;100.00
72055;BME280;59936;51.490;5.436;2022-12-24T05:35:25;100706.22;;;8.74;100.00
72055;BME280;59936;51.490;5.436;2022-12-24T05:40:28;100718.66;;;8.66;100.00
72055;BME280;59936;51.490;5.436;2022-12-24T05:45:29;100725.72;;;8.62;100.00
72055;BME280;59936;51.490;5.436;2022-12-24T05:50:32;100749.13;;;8.62;100.00
72055;BME280;59936;51.490;5.436;2022-12-24T05:55:34;100756.81;;;8.66;100.00
72055;BME280;59936;51.490;5.436;2022-12-24T06:00:36;100753.47;;;8.62;100.00
72055;BME280;59936;51.490;5.436;2022-12-24T06:05:39;100757.06;;;8.58;100.00
72055;BME280;59936;51.490;5.436;2022-12-24T06:10:41;100759.63;;;8.59;100.00
72055;BME280;59936;51.490;5.436;2022-12-24T06:15:42;100762.19;;;8.61;100.00
72055;BME280;59936;51.490;5.436;2022-12-24T06:20:49;100755.06;;;8.66;100.00
72055;BME280;59936;51.490;5.436;2022-12-24T06:25:51;100771.81;;;8.59;100.00
72055;BME280;59936;51.490;5.436;2022-12-24T06:30:56;100772.34;;;8.42;100.00
72055;BME280;59936;51.490;5.436;2022-12-24T06:35:59;100774.97;;;8.42;100.00
72055;BME280;59936;51.490;5.436;2022-12-24T06:41:04;100778.63;;;8.36;100.00
72055;BME280;59936;51.490;5.436;2022-12-24T06:46:06;100782.31;;;8.29;100.00
72055;BME280;59936;51.490;5.436;2022-12-24T06:51:10;100789.31;;;8.27;100.00
72055;BME280;59936;51.490;5.436;2022-12-24T06:56:13;100796.22;;;8.28;100.00
72055;BME280;59936;51.490;5.436;2022-12-24T07:01:16;100795.59;;;8.21;100.00
72055;BME280;59936;51.490;5.436;2022-12-24T07:06:24;100802.25;;;8.28;100.00
72055;BME280;59936;51.490;5.436;2022-12-24T07:11:27;100805.69;;;8.30;100.00
72055;BME280;59936;51.490;5.436;2022-12-24T07:16:28;100800.72;;;8.22;100.00
72055;BME280;59936;51.490;5.436;2022-12-24T07:21:31;100800.78;;;8.21;100.00
72055;BME280;59936;51.490;5.436;2022-12-24T07:26:33;100812.44;;;8.09;100.00
72055;BME280;59936;51.490;5.436;2022-12-24T07:31:35;100819.13;;;8.16;100.00
72055;BME280;59936;51.490;5.436;2022-12-24T07:36:39;100842.31;;;8.22;100.00
72055;BME280;59936;51.490;5.436;2022-12-24T07:41:41;100842.31;;;8.22;100.00
72055;BME280;59936;51.490;5.436;2022-12-24T07:46:43;100844.91;;;8.22;100.00
72055;BME280;59936;51.490;5.436;2022-12-24T07:51:46;100854.47;;;8.22;100.00
72055;BME280;59936;51.490;5.436;2022-12-24T07:56:48;100855.44;;;8.19;100.00
72055;BME280;59936;51.490;5.436;2022-12-24T08:01:50;100870.72;;;8.29;100.00
72055;BME280;59936;51.490;5.436;2022-12-24T08:06:54;100883.22;;;8.44;100.00
72055;BME280;59936;51.490;5.436;2022-12-24T08:11:56;100894.59;;;8.42;100.00
72055;BME280;59936;51.490;5.436;2022-12-24T08:16:59;100901.53;;;8.41;100.00
72055;BME280;59936;51.490;5.436;2022-12-24T08:22:02;100914.56;;;8.40;100.00
72055;BME280;59936;51.490;5.436;2022-12-24T08:27:04;100922.34;;;8.41;100.00
72055;BME280;59936;51.490;5.436;2022-12-24T08:32:05;100922.16;;;8.47;100.00
72055;BME280;59936;51.490;5.436;2022-12-24T08:37:08;100928.94;;;8.52;100.00
72055;BME280;59936;51.490;5.436;2022-12-24T08:42:10;100921.88;;;8.57;100.00
72055;BME280;59936;51.490;5.436;2022-12-24T08:47:12;100927.06;;;8.57;100.00
72055;BME280;59936;51.490;5.436;2022-12-24T08:52:15;100940.75;;;8.62;100.00
72055;BME280;59936;51.490;5.436;2022-12-24T08:57:17;100944.28;;;8.61;100.00
72055;BME280;59936;51.490;5.436;2022-12-24T09:02:19;100944.09;;;8.67;100.00
72055;BME280;59936;51.490;5.436;2022-12-24T09:07:22;100958.09;;;8.63;100.00
72055;BME280;59936;51.490;5.436;2022-12-24T09:12:24;100965.00;;;8.64;100.00
72055;BME280;59936;51.490;5.436;2022-12-24T09:17:26;100978.81;;;8.66;100.00
72055;BME280;59936;51.490;5.436;2022-12-24T09:22:29;100979.25;;;8.79;100.00
72055;BME280;59936;51.490;5.436;2022-12-24T09:27:31;101002.22;;;8.93;100.00
72055;BME280;59936;51.490;5.436;2022-12-24T09:32:33;101007.03;;;9.06;100.00
72055;BME280;59936;51.490;5.436;2022-12-24T09:37:36;101009.31;;;9.15;100.00
72055;BME280;59936;51.490;5.436;2022-12-24T09:42:43;101009.91;;;9.23;100.00
72055;BME280;59936;51.490;5.436;2022-12-24T09:47:54;101011.50;;;9.27;100.00
72055;BME280;59936;51.490;5.436;2022-12-24T09:53:02;101017.69;;;9.25;100.00
72055;BME280;59936;51.490;5.436;2022-12-24T09:58:16;101024.53;;;9.27;100.00
72055;BME280;59936;51.490;5.436;2022-12-24T10:03:22;101032.44;;;9.24;100.00
72055;BME280;59936;51.490;5.436;2022-12-24T10:08:29;101036.53;;;9.32;100.00
72055;BME280;59936;51.490;5.436;2022-12-24T10:13:51;101041.91;;;9.52;100.00
72055;BME280;59936;51.490;5.436;2022-12-24T10:19:11;101041.59;;;9.62;100.00
72055;BME280;59936;51.490;5.436;2022-12-24T10:24:23;101040.13;;;9.55;100.00
72055;BME280;59936;51.490;5.436;2022-12-24T10:29:31;101035.81;;;9.53;100.00
72055;BME280;59936;51.490;5.436;2022-12-24T10:34:42;101029.69;;;9.55;100.00
72055;BME280;59936;51.490;5.436;2022-12-24T10:39:48;101045.16;;;9.59;100.00
72055;BME280;59936;51.490;5.436;2022-12-24T10:44:53;101044.41;;;9.56;100.00
72055;BME280;59936;51.490;5.436;2022-12-24T10:50:03;101045.31;;;9.55;100.00
72055;BME280;59936;51.490;5.436;2022-12-24T10:55:22;101039.09;;;9.59;100.00
72055;BME280;59936;51.490;5.436;2022-12-24T11:00:27;101043.41;;;9.60;100.00
72055;BME280;59936;51.490;5.436;2022-12-24T11:05:32;101046.03;;;9.84;100.00
72055;BME280;59936;51.490;5.436;2022-12-24T11:10:39;101042.75;;;9.78;100.00
72055;BME280;59936;51.490;5.436;2022-12-24T11:15:44;101051.69;;;9.71;100.00
72055;BME280;59936;51.490;5.436;2022-12-24T11:20:50;101051.38;;;9.81;100.00
72055;BME280;59936;51.490;5.436;2022-12-24T11:25:56;101046.78;;;9.87;100.00
72055;BME280;59936;51.490;5.436;2022-12-24T11:31:01;101056.31;;;9.88;100.00
72055;BME280;59936;51.490;5.436;2022-12-24T11:36:09;101061.56;;;9.87;100.00
72055;BME280;59936;51.490;5.436;2022-12-24T11:41:14;101058.19;;;9.85;100.00
72055;BME280;59936;51.490;5.436;2022-12-24T11:46:33;101064.28;;;9.84;100.00
72055;BME280;59936;51.490;5.436;2022-12-24T11:51:39;101070.50;;;9.79;100.00
72055;BME280;59936;51.490;5.436;2022-12-24T11:57:01;101063.69;;;9.75;100.00
72055;BME280;59936;51.490;5.436;2022-12-24T12:02:13;101063.25;;;9.88;100.00
72055;BME280;59936;51.490;5.436;2022-12-24T12:07:24;101057.13;;;9.90;100.00
72055;BME280;59936;51.490;5.436;2022-12-24T12:12:35;101059.88;;;9.86;100.00
72055;BME280;59936;51.490;5.436;2022-12-24T12:17:46;101057.22;;;9.87;100.00
72055;BME280;59936;51.490;5.436;2022-12-24T12:22:57;101062.75;;;10.26;100.00
72055;BME280;59936;51.490;5.436;2022-12-24T12:28:07;101065.31;;;10.27;100.00
72055;BME280;59936;51.490;5.436;2022-12-24T12:33:20;101067.81;;;10.30;100.00
72055;BME280;59936;51.490;5.436;2022-12-24T12:38:27;101071.03;;;10.37;100.00
72055;BME280;59936;51.490;5.436;2022-12-24T12:43:47;101072.38;;;10.49;100.00
72055;BME280;59936;51.490;5.436;2022-12-24T12:49:14;101072.31;;;10.51;100.00
72055;BME280;59936;51.490;5.436;2022-12-24T12:54:34;101069.28;;;10.62;100.00
72055;BME280;59936;51.490;5.436;2022-12-24T12:59:52;101080.94;;;10.75;100.00
72055;BME280;59936;51.490;5.436;2022-12-24T13:11:05;101075.69;;;10.53;100.00
72055;BME280;59936;51.490;5.436;2022-12-24T13:22:22;101078.03;;;10.13;100.00
72055;BME280;59936;51.490;5.436;2022-12-24T13:27:25;101078.91;;;10.12;100.00
72055;BME280;59936;51.490;5.436;2022-12-24T13:32:49;101091.94;;;10.36;100.00
72055;BME280;59936;51.490;5.436;2022-12-24T13:37:52;101092.22;;;10.53;100.00
72055;BME280;59936;51.490;5.436;2022-12-24T13:43:07;101092.03;;;10.34;100.00
72055;BME280;59936;51.490;5.436;2022-12-24T13:48:29;101091.78;;;10.16;100.00
72055;BME280;59936;51.490;5.436;2022-12-24T13:53:36;101102.84;;;9.99;100.00
72055;BME280;59936;51.490;5.436;2022-12-24T13:58:44;101112.41;;;10.24;100.00
72055;BME280;59936;51.490;5.436;2022-12-24T14:03:52;101105.13;;;10.33;100.00
72055;BME280;59936;51.490;5.436;2022-12-24T14:09:08;101112.91;;;10.34;100.00
72055;BME280;59936;51.490;5.436;2022-12-24T14:14:26;101117.63;;;10.24;100.00
72055;BME280;59936;51.490;5.436;2022-12-24T14:19:38;101128.69;;;10.05;100.00
72055;BME280;59936;51.490;5.436;2022-12-24T14:24:45;101126.47;;;9.95;100.00
72055;BME280;59936;51.490;5.436;2022-12-24T14:30:00;101124.22;;;9.84;100.00
72055;BME280;59936;51.490;5.436;2022-12-24T14:35:13;101133.38;;;9.70;100.00
72055;BME280;59936;51.490;5.436;2022-12-24T14:40:18;101158.91;;;9.60;100.00
72055;BME280;59936;51.490;5.436;2022-12-24T14:45:28;101152.56;;;9.42;100.00
72055;BME280;59936;51.490;5.436;2022-12-24T14:51:05;101158.16;;;9.30;100.00
72055;BME280;59936;51.490;5.436;2022-12-24T14:56:16;101170.66;;;9.18;100.00
72055;BME280;59936;51.490;5.436;2022-12-24T15:01:22;101179.22;;;8.93;100.00
72055;BME280;59936;51.490;5.436;2022-12-24T15:06:28;101193.59;;;8.76;100.00
72055;BME280;59936;51.490;5.436;2022-12-24T15:11:32;101201.78;;;8.62;100.00
72055;BME280;59936;51.490;5.436;2022-12-24T15:16:34;101199.56;;;8.48;100.00
72055;BME280;59936;51.490;5.436;2022-12-24T15:21:40;101196.47;;;8.34;100.00
72055;BME280;59936;51.490;5.436;2022-12-24T15:26:43;101197.03;;;8.14;100.00
72055;BME280;59936;51.490;5.436;2022-12-24T15:31:51;101206.88;;;8.01;100.00
72055;BME280;59936;51.490;5.436;2022-12-24T15:37:02;101200.34;;;7.85;100.00
72055;BME280;59936;51.490;5.436;2022-12-24T15:42:07;101222.34;;;7.70;100.00
72055;BME280;59936;51.490;5.436;2022-12-24T15:47:18;101219.97;;;7.61;100.00
72055;BME280;59936;51.490;5.436;2022-12-24T15:52:25;101224.31;;;7.60;100.00
72055;BME280;59936;51.490;5.436;2022-12-24T15:57:29;101233.31;;;7.45;100.00
72055;BME280;59936;51.490;5.436;2022-12-24T16:02:36;101239.66;;;7.32;100.00
72055;BME280;59936;51.490;5.436;2022-12-24T16:07:41;101241.38;;;7.34;100.00
72055;BME280;59936;51.490;5.436;2022-12-24T16:12:56;101240.16;;;7.50;100.00
72055;BME280;59936;51.490;5.436;2022-12-24T16:17:58;101249.69;;;7.47;100.00
72055;BME280;59936;51.490;5.436;2022-12-24T16:23:01;101245.63;;;7.37;100.00
72055;BME280;59936;51.490;5.436;2022-12-24T16:28:07;101254.31;;;7.36;100.00
72055;BME280;59936;51.490;5.436;2022-12-24T16:33:14;101243.16;;;7.31;100.00
72055;BME280;59936;51.490;5.436;2022-12-24T16:38:18;101261.59;;;7.18;100.00
72055;BME280;59936;51.490;5.436;2022-12-24T16:43:19;101263.53;;;7.08;100.00
72055;BME280;59936;51.490;5.436;2022-12-24T16:48:39;101263.78;;;6.98;100.00
72055;BME280;59936;51.490;5.436;2022-12-24T16:53:42;101261.41;;;6.87;100.00
72055;BME280;59936;51.490;5.436;2022-12-24T16:58:45;101256.53;;;6.69;100.00
72055;BME280;59936;51.490;5.436;2022-12-24T17:03:47;101251.88;;;6.41;100.00
72055;BME280;59936;51.490;5.436;2022-12-24T17:08:50;101253.78;;;6.31;100.00
72055;BME280;59936;51.490;5.436;2022-12-24T17:13:51;101261.84;;;6.16;100.00
72055;BME280;59936;51.490;5.436;2022-12-24T17:18:53;101258.41;;;6.12;100.00
72055;BME280;59936;51.490;5.436;2022-12-24T17:23:56;101266.06;;;6.20;100.00
72055;BME280;59936;51.490;5.436;2022-12-24T17:28:58;101257.88;;;6.43;100.00
72055;BME280;59936;51.490;5.436;2022-12-24T17:34:01;101263.47;;;6.67;100.00
72055;BME280;59936;51.490;5.436;2022-12-24T17:39:04;101272.69;;;6.82;100.00
72055;BME280;59936;51.490;5.436;2022-12-24T17:44:07;101286.28;;;6.95;100.00
72055;BME280;59936;51.490;5.436;2022-12-24T17:49:13;101273.44;;;6.91;100.00
72055;BME280;59936;51.490;5.436;2022-12-24T17:54:16;101279.50;;;6.88;100.00
72055;BME280;59936;51.490;5.436;2022-12-24T17:59:18;101271.81;;;6.85;100.00
72055;BME280;59936;51.490;5.436;2022-12-24T18:04:19;101265.78;;;6.83;100.00
72055;BME280;59936;51.490;5.436;2022-12-24T18:09:24;101268.50;;;6.77;100.00
72055;BME280;59936;51.490;5.436;2022-12-24T18:14:26;101268.38;;;6.83;100.00
72055;BME280;59936;51.490;5.436;2022-12-24T18:19:27;101272.63;;;6.86;100.00
72055;BME280;59936;51.490;5.436;2022-12-24T18:24:31;101272.66;;;6.84;100.00
72055;BME280;59936;51.490;5.436;2022-12-24T18:29:32;101278.56;;;6.92;100.00
72055;BME280;59936;51.490;5.436;2022-12-24T18:34:38;101285.56;;;6.89;100.00
72055;BME280;59936;51.490;5.436;2022-12-24T18:39:43;101273.69;;;6.77;100.00
72055;BME280;59936;51.490;5.436;2022-12-24T18:44:45;101268.75;;;6.63;100.00
72055;BME280;59936;51.490;5.436;2022-12-24T18:49:47;101259.25;;;6.63;100.00
72055;BME280;59936;51.490;5.436;2022-12-24T18:54:50;101274.69;;;6.69;100.00
72055;BME280;59936;51.490;5.436;2022-12-24T18:59:51;101279.66;;;6.82;100.00
72055;BME280;59936;51.490;5.436;2022-12-24T19:04:55;101278.63;;;6.91;100.00
72055;BME280;59936;51.490;5.436;2022-12-24T19:09:58;101281.03;;;6.99;100.00
72055;BME280;59936;51.490;5.436;2022-12-24T19:14:59;101277.63;;;6.97;100.00
72055;BME280;59936;51.490;5.436;2022-12-24T19:20:01;101283.69;;;6.95;100.00
72055;BME280;59936;51.490;5.436;2022-12-24T19:25:05;101286.59;;;6.80;100.00
72055;BME280;59936;51.490;5.436;2022-12-24T19:30:08;101276.41;;;6.70;100.00
72055;BME280;59936;51.490;5.436;2022-12-24T19:35:10;101283.13;;;6.81;100.00
72055;BME280;59936;51.490;5.436;2022-12-24T19:40:13;101298.50;;;6.90;100.00
72055;BME280;59936;51.490;5.436;2022-12-24T19:45:15;101291.47;;;6.95;100.00
72055;BME280;59936;51.490;5.436;2022-12-24T19:50:17;101290.41;;;7.06;100.00
72055;BME280;59936;51.490;5.436;2022-12-24T19:55:21;101297.28;;;7.08;100.00
72055;BME280;59936;51.490;5.436;2022-12-24T20:00:23;101297.22;;;7.12;100.00
72055;BME280;59936;51.490;5.436;2022-12-24T20:05:25;101314.47;;;7.14;100.00
72055;BME280;59936;51.490;5.436;2022-12-24T20:10:28;101306.63;;;7.17;100.00
72055;BME280;59936;51.490;5.436;2022-12-24T20:15:29;101318.72;;;7.18;100.00
72055;BME280;59936;51.490;5.436;2022-12-24T20:20:31;101317.91;;;7.16;100.00
72055;BME280;59936;51.490;5.436;2022-12-24T20:25:35;101316.19;;;7.14;100.00
72055;BME280;59936;51.490;5.436;2022-12-24T20:30:37;101326.59;;;7.14;100.00
72055;BME280;59936;51.490;5.436;2022-12-24T20:35:39;101322.38;;;7.08;100.00
72055;BME280;59936;51.490;5.436;2022-12-24T20:40:44;101330.16;;;7.08;100.00
72055;BME280;59936;51.490;5.436;2022-12-24T20:45:47;101325.91;;;7.04;100.00
72055;BME280;59936;51.490;5.436;2022-12-24T20:50:50;101319.84;;;7.05;100.00
72055;BME280;59936;51.490;5.436;2022-12-24T20:55:53;101311.25;;;7.01;100.00
72055;BME280;59936;51.490;5.436;2022-12-24T21:00:54;101303.41;;;7.06;100.00
72055;BME280;59936;51.490;5.436;2022-12-24T21:05:56;101302.50;;;7.07;100.00
72055;BME280;59936;51.490;5.436;2022-12-24T21:10:59;101311.13;;;7.09;100.00
72055;BME280;59936;51.490;5.436;2022-12-24T21:16:18;101319.75;;;7.09;100.00
72055;BME280;59936;51.490;5.436;2022-12-24T21:21:20;101316.22;;;7.12;100.00
72055;BME280;59936;51.490;5.436;2022-12-24T21:26:23;101314.50;;;7.13;100.00
72055;BME280;59936;51.490;5.436;2022-12-24T21:31:25;101288.53;;;7.13;100.00
72055;BME280;59936;51.490;5.436;2022-12-24T21:36:28;101289.41;;;7.13;100.00
72055;BME280;59936;51.490;5.436;2022-12-24T21:41:31;101280.66;;;7.17;100.00
72055;BME280;59936;51.490;5.436;2022-12-24T21:46:33;101255.66;;;7.13;100.00
72055;BME280;59936;51.490;5.436;2022-12-24T21:51:35;101282.38;;;7.18;100.00
72055;BME280;59936;51.490;5.436;2022-12-24T21:56:39;101274.56;;;7.20;100.00
72055;BME280;59936;51.490;5.436;2022-12-24T22:01:59;101275.41;;;7.20;100.00
72055;BME280;59936;51.490;5.436;2022-12-24T22:07:01;101273.56;;;7.26;100.00
72055;BME280;59936;51.490;5.436;2022-12-24T22:12:21;101274.59;;;7.18;100.00
72055;BME280;59936;51.490;5.436;2022-12-24T22:17:26;101281.78;;;7.04;100.00
72055;BME280;59936;51.490;5.436;2022-12-24T22:22:28;101286.22;;;6.99;100.00
72055;BME280;59936;51.490;5.436;2022-12-24T22:27:33;101286.19;;;7.00;100.00
72055;BME280;59936;51.490;5.436;2022-12-24T22:32:34;101292.25;;;7.01;100.00
72055;BME280;59936;51.490;5.436;2022-12-24T22:37:36;101286.28;;;6.95;100.00
72055;BME280;59936;51.490;5.436;2022-12-24T22:42:39;101286.44;;;6.89;100.00
72055;BME280;59936;51.490;5.436;2022-12-24T22:47:41;101283.03;;;6.84;100.00
72055;BME280;59936;51.490;5.436;2022-12-24T22:52:42;101269.25;;;6.82;100.00
72055;BME280;59936;51.490;5.436;2022-12-24T22:57:45;101273.53;;;6.85;100.00
72055;BME280;59936;51.490;5.436;2022-12-24T23:02:47;101279.59;;;6.85;100.00
72055;BME280;59936;51.490;5.436;2022-12-24T23:07:49;101283.81;;;6.91;100.00
72055;BME280;59936;51.490;5.436;2022-12-24T23:12:52;101297.63;;;6.91;100.00
72055;BME280;59936;51.490;5.436;2022-12-24T23:18:11;101298.44;;;6.93;100.00
72055;BME280;59936;51.490;5.436;2022-12-24T23:23:13;101306.09;;;7.00;100.00
72055;BME280;59936;51.490;5.436;2022-12-24T23:28:17;101317.19;;;7.08;100.00
72055;BME280;59936;51.490;5.436;2022-12-24T23:33:18;101326.59;;;7.14;100.00
72055;BME280;59936;51.490;5.436;2022-12-24T23:38:20;101320.56;;;7.13;100.00
72055;BME280;59936;51.490;5.436;2022-12-24T23:43:24;101313.56;;;7.15;100.00
72055;BME280;59936;51.490;5.436;2022-12-24T23:48:27;101307.56;;;7.15;100.00
72055;BME280;59936;51.490;5.436;2022-12-24T23:53:29;101317.81;;;7.19;100.00
72055;BME280;59936;51.490;5.436;2022-12-24T23:58:32;101306.50;;;7.22;100.00
